Time;durP1;ratioP1;P1;durP2;ratioP2;P2;SDS_P1;SDS_P2;PMS_P1;PMS_P2;Temp;Humidity;BMP_temperature;BMP_pressure;BME280_temperature;BME280_humidity;BME280_pressure;Samples;Min_cycle;Max_cycle;Signal;HPM_P1;HPM_P2
2022/05/28 00:02:07;;;;;;;9.70;3.58;;;;;;;16.24;46.07;97754.88;4991993;28;20049;-72
2022/05/28 00:04:33;;;;;;;7.55;2.65;;;;;;;16.34;45.56;97752.41;4993101;28;20095;-72
2022/05/28 00:06:59;;;;;;;7.82;2.90;;;;;;;16.37;45.21;97741.22;4993061;28;20049;-73
2022/05/28 00:09:25;;;;;;;8.75;2.55;;;;;;;16.26;45.51;97747.44;4993463;28;20418;-73
2022/05/28 00:11:50;;;;;;;8.02;3.25;;;;;;;16.21;45.56;97731.25;4993263;28;20049;-73
2022/05/28 00:14:17;;;;;;;12.02;4.03;;;;;;;16.29;45.72;97730.06;4993411;28;20052;-73
2022/05/28 00:16:45;;;;;;;5.60;2.88;;;;;;;16.24;45.39;97724.59;5009345;28;20042;-73
2022/05/28 00:19:11;;;;;;;9.10;3.65;;;;;;;16.31;45.56;97718.03;5026395;28;20068;-72
2022/05/28 00:21:37;;;;;;;7.22;3.28;;;;;;;16.10;45.76;97705.34;4997548;28;20076;-72
2022/05/28 00:24:03;;;;;;;7.32;3.20;;;;;;;16.17;45.41;97706.03;4997935;28;20503;-73
2022/05/28 00:26:29;;;;;;;10.45;3.85;;;;;;;16.17;45.54;97700.66;4997596;28;20093;-71
2022/05/28 00:28:55;;;;;;;6.90;3.20;;;;;;;16.19;45.18;97693.19;4997586;28;20141;-71
2022/05/28 00:31:21;;;;;;;9.77;2.97;;;;;;;16.26;45.31;97695.72;5013421;28;20072;-72
2022/05/28 00:33:47;;;;;;;7.60;3.67;;;;;;;15.82;45.55;97638.41;4997022;28;20109;-73
2022/05/28 00:36:14;;;;;;;10.60;3.25;;;;;;;16.11;45.54;97692.78;4996564;28;20046;-73
2022/05/28 00:38:41;;;;;;;5.80;2.58;;;;;;;16.15;45.36;97686.69;5013318;28;20055;-73
2022/05/28 00:41:09;;;;;;;5.13;2.40;;;;;;;16.19;45.51;97693.19;4997301;28;20050;-74
2022/05/28 00:43:36;;;;;;;4.47;2.65;;;;;;;16.20;45.37;97694.81;5013238;28;20056;-74
2022/05/28 00:46:25;;;;;;;6.82;3.15;;;;;;;16.55;44.92;97700.81;5013089;28;20128;-73
2022/05/28 00:48:56;;;;;;;5.97;3.28;;;;;;;16.39;45.39;97701.56;4984554;28;20054;-73
2022/05/28 00:51:31;;;;;;;7.38;3.58;;;;;;;16.47;45.00;97690.50;5013043;28;20046;-73
2022/05/28 00:54:00;;;;;;;8.68;3.78;;;;;;;16.47;45.07;97695.84;4996446;28;20567;-72
2022/05/28 00:56:27;;;;;;;7.82;4.32;;;;;;;16.41;45.25;97691.44;5012916;28;20048;-73
2022/05/28 00:58:53;;;;;;;14.35;4.50;;;;;;;16.25;45.16;97654.72;5013836;28;20053;-73
2022/05/28 01:01:27;;;;;;;16.60;5.47;;;;;;;16.47;45.48;97682.47;4996100;28;20050;-73
2022/05/28 01:04:16;;;;;;;13.07;5.60;;;;;;;16.45;45.68;97673.84;4996966;28;20542;-72
2022/05/28 01:06:59;;;;;;;15.75;5.40;;;;;;;16.44;45.78;97677.59;5013132;28;20081;-73
2022/05/28 01:09:58;;;;;;;9.65;6.70;;;;;;;16.44;45.90;97674.91;4983029;28;20057;-73
2022/05/28 01:12:39;;;;;;;10.73;4.32;;;;;;;16.48;46.05;97681.41;4998811;28;20055;-72
2022/05/28 01:15:27;;;;;;;12.57;4.32;;;;;;;16.40;46.18;97679.13;4999649;28;20053;-73
2022/05/28 01:18:06;;;;;;;10.40;4.40;;;;;;;16.44;46.08;97677.59;4997782;28;20042;-73
2022/05/28 01:20:50;;;;;;;12.93;4.45;;;;;;;16.53;46.02;97675.31;4981941;28;20042;-74
2022/05/28 01:23:16;;;;;;;8.35;4.70;;;;;;;15.97;46.88;97668.16;4998998;28;20045;-73
2022/05/28 01:26:18;;;;;;;9.38;4.30;;;;;;;16.19;47.08;97663.72;4997491;28;20103;-74
2022/05/28 01:28:56;;;;;;;13.07;4.70;;;;;;;16.32;46.91;97662.59;5012516;28;20050;-73
2022/05/28 01:31:23;;;;;;;7.10;4.30;;;;;;;16.04;47.16;97657.28;4994937;28;20148;-74
2022/05/28 01:33:50;;;;;;;10.00;4.28;;;;;;;16.08;47.23;97651.19;4996011;28;20050;-75
2022/05/28 01:36:17;;;;;;;13.90;4.05;;;;;;;16.03;47.43;97655.66;4996599;28;20046;-74
2022/05/28 01:38:44;;;;;;;6.47;3.97;;;;;;;16.10;47.42;97648.28;4996186;28;20140;-74
2022/05/28 01:41:10;;;;;;;16.02;4.20;;;;;;;16.21;46.93;97634.84;5012512;28;20042;-74
2022/05/28 01:43:37;;;;;;;6.80;3.95;;;;;;;16.34;46.87;97644.44;4995624;28;20041;-73
2022/05/28 01:46:05;;;;;;;8.23;4.30;;;;;;;16.42;46.59;97644.81;5011809;28;20095;-74
2022/05/28 01:48:32;;;;;;;12.23;3.90;;;;;;;16.26;47.04;97642.97;4995730;28;20081;-74
2022/05/28 01:50:58;;;;;;;8.32;3.55;;;;;;;16.41;46.63;97648.56;5011841;28;20046;-74
2022/05/28 01:56:09;;;;;;;8.50;3.60;;;;;;;16.46;46.29;97634.47;5011633;28;20413;-73
2022/05/28 01:58:35;;;;;;;11.85;4.32;;;;;;;16.60;45.79;97633.91;5011693;28;20077;-74
2022/05/28 02:01:04;;;;;;;7.80;3.65;;;;;;;16.79;45.66;97629.91;5012178;28;20057;-74
2022/05/28 02:03:32;;;;;;;8.32;3.83;;;;;;;16.69;45.76;97634.31;4996343;28;20430;-73
2022/05/28 02:05:58;;;;;;;11.35;4.22;;;;;;;16.44;46.09;97632.03;4995553;28;20387;-74
2022/05/28 02:08:24;;;;;;;7.57;3.72;;;;;;;16.73;45.68;97627.38;4979084;28;20041;-72
2022/05/28 02:11:16;;;;;;;6.20;3.60;;;;;;;16.92;45.30;97628.75;4995319;28;20133;-73
2022/05/28 02:13:48;;;;;;;8.63;3.60;;;;;;;16.85;45.35;97612.84;5010630;28;20058;-74
2022/05/28 02:16:17;;;;;;;8.40;3.92;;;;;;;16.68;45.63;97620.09;4994916;28;20062;-73
2022/05/28 02:18:56;;;;;;;8.27;3.70;;;;;;;16.68;45.18;97587.13;4994685;28;20530;-73
2022/05/28 02:21:46;;;;;;;13.43;3.67;;;;;;;16.97;44.80;97626.16;4995278;28;20053;-74
2022/05/28 02:24:18;;;;;;;15.02;4.65;;;;;;;16.96;45.02;97621.81;5011081;28;20042;-73
2022/05/28 02:26:51;;;;;;;15.35;5.20;;;;;;;16.68;45.16;97633.47;4994628;28;20045;-72
2022/05/28 02:29:17;;;;;;;9.68;3.92;;;;;;;16.55;45.68;97623.13;4994172;28;20503;-73
2022/05/28 02:31:45;;;;;;;9.18;3.90;;;;;;;16.61;45.81;97627.50;4994283;28;20566;-73
2022/05/28 02:34:12;;;;;;;8.25;4.50;;;;;;;16.75;45.49;97626.09;5010234;28;20037;-73
2022/05/28 02:36:39;;;;;;;7.82;3.88;;;;;;;16.92;44.75;97622.56;5010525;28;20515;-73
2022/05/28 02:39:05;;;;;;;9.07;5.50;;;;;;;16.76;45.23;97621.53;5010826;28;20046;-73
2022/05/28 02:41:32;;;;;;;12.95;3.63;;;;;;;16.64;45.36;97627.00;4994102;28;20050;-73
2022/05/28 02:43:57;;;;;;;9.65;4.22;;;;;;;16.35;45.80;97622.75;5009754;28;20087;-74
2022/05/28 02:46:23;;;;;;;11.70;3.90;;;;;;;16.40;45.73;97622.84;4976491;28;20037;-74
2022/05/28 02:48:49;;;;;;;11.40;3.85;;;;;;;16.36;45.99;97635.09;4992512;28;20463;-74
2022/05/28 02:51:19;;;;;;;10.07;3.97;;;;;;;16.69;45.29;97624.41;4976731;28;20483;-74
2022/05/28 02:53:45;;;;;;;7.38;3.63;;;;;;;16.71;45.29;97616.91;4992944;28;20053;-73
2022/05/28 02:56:11;;;;;;;12.75;4.13;;;;;;;16.60;45.57;97623.19;4992958;28;20045;-73
2022/05/28 02:58:38;;;;;;;9.60;4.15;;;;;;;16.43;45.98;97626.91;4976575;28;20057;-74
2022/05/28 03:01:22;;;;;;;12.23;3.90;;;;;;;16.28;46.01;97597.97;4993885;28;20046;-73
2022/05/28 03:03:48;;;;;;;9.45;4.35;;;;;;;16.20;46.34;97619.84;5026220;28;20360;-73
2022/05/28 03:06:14;;;;;;;10.68;3.92;;;;;;;16.29;46.23;97623.72;5009864;28;20061;-72
2022/05/28 03:08:40;;;;;;;9.40;4.07;;;;;;;16.35;46.13;97621.94;4993978;28;20046;-75
2022/05/28 03:11:14;;;;;;;8.15;4.07;;;;;;;16.57;45.69;97596.06;4994421;28;20045;-74
2022/05/28 03:13:40;;;;;;;10.55;4.13;;;;;;;16.49;45.96;97621.41;5010109;28;20107;-74
2022/05/28 03:16:07;;;;;;;8.70;3.90;;;;;;;16.32;46.36;97617.06;4993865;28;20077;-74
2022/05/28 03:18:34;;;;;;;6.10;3.80;;;;;;;16.38;46.52;97608.88;5010559;28;20042;-75
2022/05/28 03:21:00;;;;;;;22.75;6.10;;;;;;;16.49;46.34;97601.84;4994102;28;20531;-74
2022/05/28 03:23:34;;;;;;;9.85;4.15;;;;;;;16.63;45.97;97600.44;4993435;28;20091;-75
2022/05/28 03:26:19;;;;;;;7.90;4.20;;;;;;;16.76;45.41;97565.25;5009793;28;20050;-75
2022/05/28 03:28:46;;;;;;;11.68;4.28;;;;;;;16.85;45.73;97590.59;4993935;28;20053;-75
2022/05/28 03:31:12;;;;;;;12.35;4.00;;;;;;;16.86;45.57;97586.84;5009828;28;20052;-75
2022/05/28 03:33:39;;;;;;;14.65;4.00;;;;;;;16.87;45.31;97587.66;4993882;28;20585;-75
2022/05/28 03:36:06;;;;;;;11.95;4.22;;;;;;;16.63;46.20;97587.06;4977671;28;20038;-75
2022/05/28 03:38:33;;;;;;;7.95;4.45;;;;;;;16.52;46.16;97561.97;4993618;28;20037;-75
2022/05/28 03:40:59;;;;;;;12.75;4.65;;;;;;;16.65;45.94;97588.41;5009912;28;20490;-74
2022/05/28 03:43:25;;;;;;;10.60;4.10;;;;;;;16.84;45.85;97581.72;5010629;28;20132;-75
2022/05/28 03:45:52;;;;;;;13.23;4.47;;;;;;;16.51;45.71;97560.34;4992963;28;20132;-74
2022/05/28 03:48:17;;;;;;;11.80;4.82;;;;;;;16.76;45.91;97576.78;5025457;28;20085;-73
2022/05/28 03:50:43;;;;;;;9.20;4.40;;;;;;;16.65;46.35;97588.41;5009236;28;20076;-73
2022/05/28 03:53:10;;;;;;;16.80;5.35;;;;;;;16.52;46.39;97580.72;4992787;28;20515;-74
2022/05/28 03:55:37;;;;;;;7.90;4.60;;;;;;;16.74;46.29;97588.81;4992696;28;20076;-74
2022/05/28 03:58:05;;;;;;;7.85;4.70;;;;;;;16.70;46.47;97585.00;4976326;28;20064;-73
2022/05/28 04:00:31;;;;;;;8.95;4.72;;;;;;;16.47;46.31;97558.38;4992987;28;20470;-73
2022/05/28 04:02:58;;;;;;;10.15;5.10;;;;;;;16.90;45.79;97582.59;4992737;28;20054;-74
2022/05/28 04:05:24;;;;;;;13.40;4.70;;;;;;;16.87;45.91;97583.09;4992688;28;20204;-73
2022/05/28 04:07:50;;;;;;;13.93;4.90;;;;;;;16.87;45.78;97574.25;4992549;28;20053;-73
2022/05/28 04:10:17;;;;;;;8.95;4.80;;;;;;;16.85;46.04;97572.63;4992458;28;20042;-73
2022/05/28 04:12:42;;;;;;;9.90;5.38;;;;;;;16.92;45.65;97579.66;4992672;28;20075;-73
2022/05/28 04:15:10;;;;;;;10.18;4.75;;;;;;;17.15;45.58;97568.69;4993142;28;20503;-72
2022/05/28 04:17:35;;;;;;;10.70;5.03;;;;;;;17.23;45.05;97579.00;5008652;28;20077;-72
2022/05/28 04:20:02;;;;;;;9.93;4.97;;;;;;;17.35;45.18;97579.69;4992511;28;20096;-74
2022/05/28 04:22:29;;;;;;;7.97;4.95;;;;;;;17.23;45.40;97584.38;5008830;28;20463;-73
2022/05/28 04:24:55;;;;;;;11.07;5.13;;;;;;;17.10;45.71;97577.50;4992905;28;20176;-73
2022/05/28 04:27:21;;;;;;;13.18;4.97;;;;;;;17.10;46.07;97577.50;4992787;28;20519;-73
2022/05/28 04:29:46;;;;;;;13.93;5.97;;;;;;;17.17;45.71;97578.16;4992356;28;20038;-74
2022/05/28 04:32:12;;;;;;;12.70;5.20;;;;;;;17.38;45.51;97579.19;4992753;28;20049;-73
2022/05/28 04:34:38;;;;;;;12.48;5.47;;;;;;;17.25;45.69;97566.94;4992845;28;20060;-73
2022/05/28 04:37:04;;;;;;;14.27;5.90;;;;;;;17.60;45.07;97571.94;4992275;28;20056;-73
2022/05/28 04:39:30;;;;;;;11.90;5.45;;;;;;;17.29;45.68;97565.41;5008774;28;20061;-73
2022/05/28 04:41:56;;;;;;;9.43;5.55;;;;;;;17.12;45.81;97559.28;4992887;28;20112;-73
2022/05/28 04:44:21;;;;;;;11.77;5.38;;;;;;;17.47;45.50;97569.66;4992216;28;20046;-73
2022/05/28 04:46:47;;;;;;;14.60;6.20;;;;;;;17.33;45.41;97544.25;4992070;28;20048;-73
2022/05/28 04:49:14;;;;;;;8.77;5.35;;;;;;;17.58;45.47;97569.53;4992079;28;20050;-73
2022/05/28 04:51:39;;;;;;;7.90;5.28;;;;;;;17.71;45.40;97569.09;4991910;28;20069;-73
2022/05/28 04:54:06;;;;;;;10.90;5.55;;;;;;;17.84;45.21;97568.72;4992307;28;20093;-72
2022/05/28 04:56:32;;;;;;;10.82;5.10;;;;;;;17.73;45.31;97572.34;4959790;28;20664;-74
2022/05/28 04:58:58;;;;;;;11.10;4.97;;;;;;;18.07;45.14;97565.69;4975772;28;20057;-74
2022/05/28 05:01:24;;;;;;;9.60;5.50;;;;;;;18.33;44.49;97572.09;4976333;28;20128;-74
2022/05/28 05:03:50;;;;;;;10.88;5.40;;;;;;;18.31;44.44;97575.03;5009244;28;20100;-73
2022/05/28 05:06:16;;;;;;;11.70;5.28;;;;;;;18.35;44.04;97565.41;4994790;28;20057;-73
2022/05/28 05:08:41;;;;;;;11.65;5.60;;;;;;;18.23;44.96;97572.00;5012944;28;20042;-74
2022/05/28 05:11:07;;;;;;;11.02;5.50;;;;;;;18.16;45.10;97566.03;5012523;28;20103;-73
2022/05/28 05:13:33;;;;;;;14.32;5.70;;;;;;;18.22;44.86;97573.88;4996418;28;20049;-74
2022/05/28 05:15:59;;;;;;;16.02;6.00;;;;;;;18.17;44.97;97578.41;4996719;28;20077;-74
2022/05/28 05:18:25;;;;;;;9.27;5.70;;;;;;;17.86;45.77;97563.09;4996228;28;20057;-74
2022/05/28 05:20:51;;;;;;;9.50;5.72;;;;;;;17.83;46.02;97572.47;5012660;28;20494;-74
2022/05/28 05:23:17;;;;;;;13.07;6.60;;;;;;;17.83;46.09;97571.66;4996082;28;20069;-74
2022/05/28 05:25:43;;;;;;;13.43;6.20;;;;;;;17.84;46.25;97567.88;5013444;28;20053;-73
2022/05/28 05:28:09;;;;;;;11.48;5.72;;;;;;;17.87;45.99;97564.69;5012175;28;20486;-72
2022/05/28 05:30:35;;;;;;;13.75;5.63;;;;;;;17.87;46.23;97562.00;5012242;28;20125;-71
2022/05/28 05:33:01;;;;;;;9.57;5.78;;;;;;;17.93;46.22;97555.63;4995689;28;20099;-71
2022/05/28 05:35:28;;;;;;;14.57;6.18;;;;;;;18.03;46.45;97561.09;4995576;28;20505;-74
2022/05/28 05:37:55;;;;;;;12.73;5.75;;;;;;;18.04;45.97;97536.66;5011858;28;20038;-75
2022/05/28 05:40:21;;;;;;;13.40;5.70;;;;;;;18.14;45.87;97541.31;5014677;28;20045;-73
2022/05/28 05:43:19;;;;;;;9.43;5.70;;;;;;;18.45;45.50;97553.94;5015337;28;20033;-69
2022/05/28 05:49:00;;;;;;;12.20;5.25;;;;;;;19.11;43.56;97571.28;5010979;28;20044;-74
2022/05/28 05:51:28;;;;;;;14.55;5.50;;;;;;;19.06;43.80;97566.69;5010314;28;20046;-73
2022/05/28 05:53:53;;;;;;;7.50;4.18;;;;;;;19.05;43.41;97565.03;5009041;28;20050;-73
2022/05/28 05:56:19;;;;;;;8.57;4.65;;;;;;;19.06;43.53;97568.56;4993373;28;20475;-74
2022/05/28 05:58:45;;;;;;;9.23;4.95;;;;;;;19.02;43.57;97579.03;5012089;28;20426;-73
2022/05/28 06:01:12;;;;;;;8.70;5.00;;;;;;;19.15;44.02;97575.03;4995913;28;20056;-73
2022/05/28 06:03:44;;;;;;;16.73;4.80;;;;;;;18.76;43.25;97539.59;4995644;28;20045;-73
2022/05/28 06:06:13;;;;;;;12.90;4.68;;;;;;;18.99;43.62;97554.53;5011591;28;20050;-72
2022/05/28 06:08:39;;;;;;;11.00;5.07;;;;;;;18.87;44.16;97580.81;4995253;28;20048;-71
2022/05/28 06:11:05;;;;;;;11.68;5.35;;;;;;;18.98;43.55;97580.63;5011315;28;20045;-72
2022/05/28 06:13:31;;;;;;;11.93;5.18;;;;;;;18.86;44.00;97580.03;4978815;28;20050;-70
2022/05/28 06:15:57;;;;;;;9.40;4.20;;;;;;;18.75;43.53;97569.44;4978489;28;20049;-69
2022/05/28 06:18:23;;;;;;;22.63;5.10;;;;;;;18.94;43.81;97586.78;5010497;28;20064;-72
2022/05/28 06:20:51;;;;;;;10.32;4.72;;;;;;;18.87;43.14;97570.06;4994679;28;20476;-70
2022/05/28 06:23:17;;;;;;;20.13;5.50;;;;;;;18.94;43.82;97578.72;4995027;28;20060;-72
2022/05/28 06:25:43;;;;;;;16.42;4.53;;;;;;;18.65;43.21;97578.25;4994797;28;20182;-70
2022/05/28 06:28:09;;;;;;;12.90;4.53;;;;;;;18.61;43.54;97590.59;4994737;28;20470;-70
2022/05/28 06:30:35;;;;;;;8.48;4.30;;;;;;;18.54;43.58;97584.66;5010885;28;20034;-70
2022/05/28 06:33:01;;;;;;;9.20;4.13;;;;;;;18.43;44.03;97586.44;4994627;28;20103;-70
2022/05/28 06:35:30;;;;;;;11.07;4.20;;;;;;;18.88;43.39;97585.16;5012100;28;20412;-71
2022/05/28 06:37:55;;;;;;;10.30;4.90;;;;;;;18.32;44.70;97571.28;5008716;28;20056;-71
2022/05/28 06:40:21;;;;;;;7.97;4.65;;;;;;;18.34;45.37;97581.78;4958153;28;20042;-71
2022/05/28 06:42:54;;;;;;;7.10;3.28;;;;;;;18.38;44.56;97580.22;5006363;28;20069;-70
2022/05/28 06:45:20;;;;;;;10.05;4.03;;;;;;;18.23;45.13;97583.59;4989840;28;20942;-71
2022/05/28 06:47:46;;;;;;;8.77;4.93;;;;;;;18.39;45.72;97579.16;5007524;28;20046;-70
2022/05/28 06:52:57;;;;;;;10.85;4.85;;;;;;;18.33;46.25;97577.47;4980815;28;20415;-70
2022/05/28 06:55:26;;;;;;;9.88;4.55;;;;;;;18.35;45.82;97581.53;4994000;28;20512;-70
2022/05/28 06:57:52;;;;;;;7.50;3.80;;;;;;;18.39;46.42;97587.22;4994325;28;20130;-70
2022/05/28 07:00:18;;;;;;;14.07;3.80;;;;;;;18.35;45.87;97575.34;5010833;28;20046;-71
2022/05/28 07:02:44;;;;;;;7.50;3.78;;;;;;;18.44;46.27;97589.94;4962190;28;20044;-71
2022/05/28 07:05:14;;;;;;;12.05;4.70;;;;;;;18.87;46.23;97576.25;4994349;28;20038;-70
2022/05/28 07:07:41;;;;;;;14.80;3.80;;;;;;;18.86;44.76;97585.41;4978014;28;20054;-70
2022/05/28 07:10:08;;;;;;;6.72;4.43;;;;;;;19.06;45.15;97596.28;4994000;28;20048;-70
2022/05/28 07:12:34;;;;;;;7.57;4.22;;;;;;;19.09;45.39;97597.63;4977469;28;20052;-71
2022/05/28 07:15:00;;;;;;;9.65;4.43;;;;;;;19.28;46.09;97605.00;4977704;28;20068;-71
2022/05/28 07:17:28;;;;;;;12.93;4.80;;;;;;;19.30;44.92;97602.06;4994048;28;20483;-70
2022/05/28 07:19:54;;;;;;;12.00;4.47;;;;;;;19.63;44.93;97599.78;4977775;28;20117;-70
2022/05/28 07:22:20;;;;;;;14.65;5.55;;;;;;;19.67;45.40;97592.78;4977805;28;20196;-71
2022/05/28 07:24:48;;;;;;;20.38;7.22;;;;;;;20.00;45.01;97624.63;5010739;28;20136;-70
2022/05/28 07:27:14;;;;;;;7.80;3.92;;;;;;;20.07;44.52;97629.78;4977424;28;20145;-71
2022/05/28 07:29:40;;;;;;;14.23;7.40;;;;;;;20.31;43.82;97633.63;5010261;28;20099;-70
2022/05/28 07:32:07;;;;;;;7.35;4.50;;;;;;;20.31;43.79;97632.81;4961818;28;20049;-70
2022/05/28 07:34:34;;;;;;;8.48;3.50;;;;;;;20.41;43.52;97643.59;5010617;28;20180;-71
2022/05/28 07:37:00;;;;;;;7.63;3.72;;;;;;;20.50;42.81;97639.28;4993992;28;20427;-71
2022/05/28 07:39:26;;;;;;;8.65;3.30;;;;;;;20.52;42.64;97645.22;4993897;28;20084;-72
2022/05/28 07:41:52;;;;;;;7.63;3.00;;;;;;;20.62;42.50;97634.44;4978085;28;20515;-72
2022/05/28 07:44:18;;;;;;;5.72;3.10;;;;;;;20.67;42.09;97637.94;4977971;28;20124;-71
2022/05/28 07:46:44;;;;;;;6.05;2.88;;;;;;;20.70;41.91;97645.50;4993527;28;20056;-71
2022/05/28 07:49:10;;;;;;;6.38;3.25;;;;;;;20.61;41.53;97619.31;4993730;28;20056;-71
2022/05/28 07:51:36;;;;;;;10.40;2.92;;;;;;;20.99;40.66;97656.53;4993723;28;20096;-71
2022/05/28 07:54:03;;;;;;;4.53;3.00;;;;;;;20.86;40.75;97643.59;4977545;28;20050;-70
2022/05/28 07:56:31;;;;;;;5.30;3.55;;;;;;;20.94;40.83;97654.63;5009853;28;20128;-71
2022/05/28 07:58:59;;;;;;;6.55;2.50;;;;;;;21.05;39.89;97664.38;5010246;28;20064;-71
2022/05/28 08:01:27;;;;;;;4.97;2.53;;;;;;;21.16;39.12;97648.94;5009928;28;20507;-71
2022/05/28 08:03:54;;;;;;;10.02;2.60;;;;;;;21.21;38.74;97668.66;5009706;28;20491;-71
2022/05/28 08:06:20;;;;;;;6.20;2.20;;;;;;;21.16;37.76;97684.88;4977665;28;20096;-70
2022/05/28 08:08:47;;;;;;;4.72;2.50;;;;;;;21.18;37.80;97677.31;5009805;28;20514;-70
2022/05/28 08:11:13;;;;;;;11.10;3.15;;;;;;;21.08;38.80;97668.44;4993441;28;20460;-70
2022/05/28 08:13:39;;;;;;;12.23;3.58;;;;;;;21.16;40.15;97692.16;5026169;28;20076;-71
2022/05/28 08:16:05;;;;;;;9.38;5.55;;;;;;;21.08;39.87;97700.81;4977497;28;20053;-70
2022/05/28 08:18:31;;;;;;;8.00;3.60;;;;;;;21.01;40.01;97705.66;4993617;28;20096;-71
2022/05/28 08:23:42;;;;;;;7.85;3.00;;;;;;;20.93;40.08;97701.59;4995989;28;20042;-71
2022/05/28 08:26:09;;;;;;;7.93;3.20;;;;;;;20.91;40.72;97711.06;4993486;28;20522;-71
2022/05/28 08:28:36;;;;;;;6.90;2.88;;;;;;;20.79;41.01;97713.22;4977421;28;20049;-71
2022/05/28 08:31:02;;;;;;;5.63;2.20;;;;;;;20.19;40.99;97692.34;5009624;28;20068;-71
2022/05/28 08:33:28;;;;;;;4.78;1.88;;;;;;;20.17;40.95;97713.38;4977376;28;20104;-70
2022/05/28 08:35:57;;;;;;;8.05;1.80;;;;;;;20.05;40.31;97710.88;5009678;28;20046;-71
2022/05/28 08:38:23;;;;;;;6.80;1.80;;;;;;;20.24;40.40;97715.81;4977677;28;20056;-70
2022/05/28 08:40:59;;;;;;;2.90;1.83;;;;;;;20.29;39.46;97724.75;4995368;28;20038;-71
2022/05/28 08:43:36;;;;;;;6.82;1.92;;;;;;;20.13;39.92;97706.06;5013287;28;20503;-71
2022/05/28 08:46:03;;;;;;;6.72;2.45;;;;;;;20.19;40.96;97730.09;5014482;28;20089;-71
2022/05/28 08:48:40;;;;;;;7.88;2.28;;;;;;;20.25;41.31;97709.38;4980895;28;20085;-70
2022/05/28 08:51:10;;;;;;;6.45;2.10;;;;;;;20.20;40.29;97744.38;4980886;28;20052;-71
2022/05/28 08:53:44;;;;;;;5.60;2.17;;;;;;;20.42;39.70;97742.28;5029517;28;20081;-70
2022/05/28 08:56:14;;;;;;;5.80;2.25;;;;;;;20.06;40.98;97727.88;4996983;28;20052;-71
2022/05/28 08:58:40;;;;;;;9.30;2.35;;;;;;;19.92;41.26;97721.34;4996617;28;20507;-70
2022/05/28 09:01:19;;;;;;;5.43;2.40;;;;;;;20.05;41.06;97742.41;4980526;28;20038;-70
2022/05/28 09:03:55;;;;;;;5.13;1.88;;;;;;;19.83;40.25;97750.66;4996484;28;20053;-71
2022/05/28 09:06:31;;;;;;;5.07;1.90;;;;;;;19.94;40.03;97749.63;4964644;28;20052;-71
2022/05/28 09:08:57;;;;;;;39.60;23.40;;;;;;;19.91;40.84;97757.47;4996639;28;20048;-70
2022/05/28 09:11:37;;;;;;;4.18;2.30;;;;;;;19.84;40.55;97765.78;4980471;28;20132;-71
2022/05/28 09:14:26;;;;;;;3.50;2.15;;;;;;;20.16;40.54;97764.88;4980327;28;20038;-71
2022/05/28 09:16:55;;;;;;;5.03;1.73;;;;;;;19.90;40.92;97735.09;4980440;28;20042;-70
2022/05/28 09:19:24;;;;;;;4.63;1.80;;;;;;;19.96;41.18;97770.94;5013105;28;20052;-70
2022/05/28 09:21:50;;;;;;;7.75;2.00;;;;;;;19.65;41.26;97747.63;5013158;28;20062;-70
2022/05/28 09:24:20;;;;;;;5.82;2.00;;;;;;;19.90;41.27;97770.13;4964242;28;20125;-70
2022/05/28 09:27:11;;;;;;;3.70;2.00;;;;;;;19.98;40.61;97785.78;4996509;28;20042;-71
2022/05/28 09:29:43;;;;;;;7.40;2.05;;;;;;;19.96;40.85;97781.72;5012571;28;20324;-70
2022/05/28 09:32:15;;;;;;;8.90;2.00;;;;;;;19.98;41.09;97775.00;5012694;28;20053;-70
2022/05/28 09:35:04;;;;;;;6.30;2.00;;;;;;;20.09;41.29;97784.75;5013945;28;20053;-70
2022/05/28 09:37:46;;;;;;;3.85;1.88;;;;;;;20.19;41.32;97786.69;4979798;28;20045;-70
2022/05/28 09:40:15;;;;;;;3.45;1.60;;;;;;;20.23;41.29;97790.50;5012738;28;20072;-70
2022/05/28 09:42:57;;;;;;;4.80;3.17;;;;;;;20.31;41.16;97794.56;5012343;28;20571;-70
2022/05/28 09:45:45;;;;;;;3.47;1.42;;;;;;;20.02;41.51;97797.66;4996558;28;20101;-70
2022/05/28 09:48:22;;;;;;;2.55;1.45;;;;;;;20.60;41.10;97809.22;5012319;28;20041;-71
2022/05/28 09:50:48;;;;;;;3.25;2.10;;;;;;;19.96;42.22;97809.47;4996110;28;20100;-70
2022/05/28 09:56:22;;;;;;;2.38;1.30;;;;;;;19.81;42.27;97808.59;5012120;28;20081;-70
2022/05/28 09:58:47;;;;;;;4.75;1.45;;;;;;;19.04;43.21;97804.75;5012179;28;20491;-70
2022/05/28 10:01:26;;;;;;;3.17;1.70;;;;;;;19.36;43.01;97813.66;5028548;28;20049;-70
2022/05/28 10:06:50;;;;;;;2.83;1.55;;;;;;;19.77;42.10;97821.75;4997967;28;20466;-70
2022/05/28 10:09:35;;;;;;;4.82;1.75;;;;;;;19.98;42.40;97834.28;4978995;28;20127;-70
2022/05/28 10:12:13;;;;;;;4.28;2.03;;;;;;;19.80;42.56;97832.00;4995497;28;20060;-70
2022/05/28 10:14:39;;;;;;;4.57;2.20;;;;;;;19.63;43.28;97828.69;4978925;28;20535;-70
2022/05/28 10:17:05;;;;;;;2.47;1.83;;;;;;;19.87;42.14;97842.56;4995461;28;20061;-71
2022/05/28 10:19:41;;;;;;;3.30;2.20;;;;;;;20.75;40.74;97820.03;4962953;28;20125;-71
2022/05/28 10:22:12;;;;;;;5.72;2.15;;;;;;;21.28;39.20;97860.09;4979143;28;20419;-71
2022/05/28 10:24:48;;;;;;;2.83;1.70;;;;;;;20.73;40.06;97851.84;5011770;28;20105;-70
2022/05/28 10:27:44;;;;;;;6.43;3.95;;;;;;;20.70;39.15;97858.59;4995824;28;20045;-70
2022/05/28 10:30:24;;;;;;;4.22;2.00;;;;;;;20.39;40.73;97856.06;4978950;28;20050;-70
2022/05/28 10:32:51;;;;;;;3.08;1.85;;;;;;;20.60;40.94;97841.59;4978847;28;20116;-70
2022/05/28 10:35:26;;;;;;;5.47;2.33;;;;;;;21.01;39.63;97837.91;4995639;28;20050;-71
2022/05/28 10:37:53;;;;;;;3.50;1.85;;;;;;;21.46;38.81;97854.94;5028305;28;20046;-71
2022/05/28 10:40:25;;;;;;;3.72;1.70;;;;;;;22.26;37.46;97864.03;4996653;28;20072;-70
2022/05/28 10:42:59;;;;;;;2.78;1.80;;;;;;;22.37;35.95;97839.38;5013100;28;20144;-69
2022/05/28 10:45:32;;;;;;;3.53;1.70;;;;;;;22.38;36.61;97881.59;4964102;28;20041;-70
2022/05/28 10:48:27;;;;;;;3.70;2.67;;;;;;;22.90;35.84;97881.94;4996330;28;20415;-71
2022/05/28 10:51:20;;;;;;;3.08;1.65;;;;;;;23.98;33.93;97881.69;5012228;28;20569;-71
2022/05/28 10:54:24;;;;;;;4.28;1.70;;;;;;;23.76;34.60;97884.03;4989826;28;20107;-70
2022/05/28 10:57:41;;;;;;;3.80;1.25;;;;;;;23.06;34.47;97879.94;4962309;28;20112;-71
2022/05/28 11:00:13;;;;;;;4.10;1.45;;;;;;;22.01;35.46;97872.22;4985707;28;20058;-71
2022/05/28 11:03:00;;;;;;;1.92;1.10;;;;;;;21.93;34.86;97889.81;4994737;28;20503;-70
2022/05/28 11:05:47;;;;;;;3.40;1.50;;;;;;;21.26;36.86;97881.97;5010535;28;20069;-71
2022/05/28 11:08:24;;;;;;;2.70;1.10;;;;;;;21.79;35.05;97863.63;5010568;28;20046;-70
2022/05/28 11:11:08;;;;;;;3.65;1.10;;;;;;;22.14;34.48;97885.19;5011761;28;20054;-71
2022/05/28 11:13:43;;;;;;;2.08;1.15;;;;;;;22.89;33.96;97888.44;5010491;28;20502;-70
2022/05/28 11:16:19;;;;;;;1.63;1.08;;;;;;;23.31;33.40;97881.69;5010484;28;20050;-71
2022/05/28 11:19:03;;;;;;;3.67;1.23;;;;;;;22.23;33.24;97853.78;4993687;28;20049;-71
2022/05/28 11:21:47;;;;;;;2.10;1.25;;;;;;;22.44;32.65;97875.06;5010333;28;20116;-71
2022/05/28 11:24:13;;;;;;;2.40;1.00;;;;;;;22.62;33.14;97879.06;5009725;28;20483;-71
2022/05/28 11:26:57;;;;;;;2.05;1.08;;;;;;;22.46;32.32;97866.69;5011473;28;20049;-71
2022/05/28 11:29:28;;;;;;;1.83;0.90;;;;;;;22.48;31.16;97886.94;4977758;28;20107;-71
2022/05/28 11:32:04;;;;;;;6.15;2.83;;;;;;;22.79;31.88;97887.66;4977328;28;20053;-70
2022/05/28 11:34:41;;;;;;;1.63;0.90;;;;;;;22.54;31.09;97893.19;4977451;28;20045;-71
2022/05/28 11:37:17;;;;;;;3.78;0.95;;;;;;;22.77;32.07;97906.88;4977475;28;20054;-71
2022/05/28 11:39:55;;;;;;;2.97;0.90;;;;;;;22.71;31.58;97882.84;5009870;28;20084;-71
2022/05/28 11:42:35;;;;;;;4.78;0.90;;;;;;;22.60;32.67;97881.25;5010127;28;20140;-71
2022/05/28 11:45:04;;;;;;;2.00;0.90;;;;;;;22.07;33.08;97887.34;4994070;28;20038;-70
2022/05/28 11:47:38;;;;;;;1.23;0.80;;;;;;;22.36;32.18;97909.97;4993963;28;20061;-70
2022/05/28 11:53:19;;;;;;;1.85;0.95;;;;;;;22.15;31.66;97901.13;5010158;28;20053;-70
2022/05/28 11:55:46;;;;;;;4.32;0.80;;;;;;;22.13;30.92;97878.13;5010147;28;20096;-70
2022/05/28 11:58:20;;;;;;;3.83;1.10;;;;;;;22.14;31.08;97904.09;4977216;28;20050;-70
2022/05/28 12:00:54;;;;;;;1.60;1.05;;;;;;;22.40;31.45;97892.91;5010962;28;20140;-70
2022/05/28 12:03:19;;;;;;;3.63;0.90;;;;;;;22.34;30.69;97914.88;5009748;28;20056;-70
2022/05/28 12:05:57;;;;;;;2.33;0.95;;;;;;;22.62;29.82;97904.25;5010935;28;20140;-70
2022/05/28 12:08:29;;;;;;;7.60;1.10;;;;;;;22.62;29.86;97909.66;5009842;28;20196;-70